Duff, Indiana
Current Conditions -  °F | °C
As of 6:15 AM on Thursday 29 Jan 2015 (Local Time) from KHNB Reporting Station
Clear Clear  
Wind Chill: 39°   Ceiling: Unl
Heat Index: 46°   Visibility: 10mi
Dew Point: 34°   Wind: 17mph
Humidity: 62%   Direction: 200°SSW
Pressure: 29.86"   Gusts: NA
Location:  38.3038°N, 86.9615°W
Report Text: KHNB 291215Z AUTO 20015KT 10SM CLR 08/01 A2986 RMK AO1
Loading
Personal Weather Stations






























Interactive Weather Map New forecast layout! Learn more

10-Day Weather Forecast

Advertisements
Track Severe Weather on mobile